sensor_id;sensor_type;location;lat;lon;timestamp;P1;durP1;ratioP1;P2;durP2;ratioP2
24383;SDS011;12504;52.870;8.798;2023-07-29T00:00:53;29.63;;;18.25;;
24383;SDS011;12504;52.870;8.798;2023-07-29T00:03:21;26.38;;;17.13;;
24383;SDS011;12504;52.870;8.798;2023-07-29T00:05:53;30.00;;;18.52;;
24383;SDS011;12504;52.870;8.798;2023-07-29T00:08:21;27.10;;;16.90;;
24383;SDS011;12504;52.870;8.798;2023-07-29T00:10:47;31.15;;;20.38;;
24383;SDS011;12504;52.870;8.798;2023-07-29T00:13:13;34.70;;;19.35;;
24383;SDS011;12504;52.870;8.798;2023-07-29T00:15:39;37.42;;;19.33;;
24383;SDS011;12504;52.870;8.798;2023-07-29T00:18:11;47.08;;;20.92;;
24383;SDS011;12504;52.870;8.798;2023-07-29T00:20:40;34.67;;;20.55;;
24383;SDS011;12504;52.870;8.798;2023-07-29T00:23:08;31.23;;;19.55;;
24383;SDS011;12504;52.870;8.798;2023-07-29T00:25:35;32.38;;;21.08;;
24383;SDS011;12504;52.870;8.798;2023-07-29T00:28:02;40.42;;;21.80;;
24383;SDS011;12504;52.870;8.798;2023-07-29T00:30:30;37.67;;;21.75;;
24383;SDS011;12504;52.870;8.798;2023-07-29T00:32:59;32.30;;;20.27;;
24383;SDS011;12504;52.870;8.798;2023-07-29T00:35:25;33.72;;;19.42;;
24383;SDS011;12504;52.870;8.798;2023-07-29T00:37:51;35.15;;;19.45;;
24383;SDS011;12504;52.870;8.798;2023-07-29T00:40:21;33.05;;;20.45;;
24383;SDS011;12504;52.870;8.798;2023-07-29T00:42:47;37.70;;;20.75;;
24383;SDS011;12504;52.870;8.798;2023-07-29T00:45:17;36.30;;;19.90;;
24383;SDS011;12504;52.870;8.798;2023-07-29T00:47:44;34.70;;;20.38;;
24383;SDS011;12504;52.870;8.798;2023-07-29T00:50:11;38.97;;;22.38;;
24383;SDS011;12504;52.870;8.798;2023-07-29T00:52:39;42.33;;;21.95;;
24383;SDS011;12504;52.870;8.798;2023-07-29T00:55:12;35.75;;;21.92;;
24383;SDS011;12504;52.870;8.798;2023-07-29T00:57:41;38.97;;;20.33;;
24383;SDS011;12504;52.870;8.798;2023-07-29T01:00:10;37.77;;;21.77;;
24383;SDS011;12504;52.870;8.798;2023-07-29T01:02:39;37.40;;;20.15;;
24383;SDS011;12504;52.870;8.798;2023-07-29T01:05:06;32.13;;;19.13;;
24383;SDS011;12504;52.870;8.798;2023-07-29T01:12:57;32.90;;;20.67;;
24383;SDS011;12504;52.870;8.798;2023-07-29T01:15:48;34.65;;;20.55;;
24383;SDS011;12504;52.870;8.798;2023-07-29T01:18:28;34.40;;;20.88;;
24383;SDS011;12504;52.870;8.798;2023-07-29T01:20:59;35.15;;;20.65;;
24383;SDS011;12504;52.870;8.798;2023-07-29T01:23:30;37.88;;;20.00;;
24383;SDS011;12504;52.870;8.798;2023-07-29T01:25:58;34.45;;;21.23;;
24383;SDS011;12504;52.870;8.798;2023-07-29T01:28:24;33.58;;;21.20;;
24383;SDS011;12504;52.870;8.798;2023-07-29T01:30:51;34.75;;;20.75;;
24383;SDS011;12504;52.870;8.798;2023-07-29T01:33:26;37.28;;;21.10;;
24383;SDS011;12504;52.870;8.798;2023-07-29T01:35:57;35.22;;;21.13;;
24383;SDS011;12504;52.870;8.798;2023-07-29T01:38:33;31.95;;;18.50;;
24383;SDS011;12504;52.870;8.798;2023-07-29T01:41:01;32.85;;;20.33;;
24383;SDS011;12504;52.870;8.798;2023-07-29T01:43:31;32.50;;;19.30;;
24383;SDS011;12504;52.870;8.798;2023-07-29T01:45:58;32.83;;;19.75;;
24383;SDS011;12504;52.870;8.798;2023-07-29T01:48:26;38.70;;;20.73;;
24383;SDS011;12504;52.870;8.798;2023-07-29T01:50:57;37.22;;;19.63;;
24383;SDS011;12504;52.870;8.798;2023-07-29T01:53:23;39.55;;;19.77;;
24383;SDS011;12504;52.870;8.798;2023-07-29T01:55:51;37.00;;;19.65;;
24383;SDS011;12504;52.870;8.798;2023-07-29T01:58:20;41.03;;;21.10;;
24383;SDS011;12504;52.870;8.798;2023-07-29T02:00:47;31.75;;;19.45;;
24383;SDS011;12504;52.870;8.798;2023-07-29T02:03:14;31.70;;;19.73;;
24383;SDS011;12504;52.870;8.798;2023-07-29T02:05:41;36.42;;;19.83;;
24383;SDS011;12504;52.870;8.798;2023-07-29T02:08:10;35.60;;;20.25;;
24383;SDS011;12504;52.870;8.798;2023-07-29T02:10:39;31.50;;;18.60;;
24383;SDS011;12504;52.870;8.798;2023-07-29T02:13:07;34.00;;;19.00;;
24383;SDS011;12504;52.870;8.798;2023-07-29T02:15:35;36.67;;;19.07;;
24383;SDS011;12504;52.870;8.798;2023-07-29T02:18:01;35.10;;;19.17;;
24383;SDS011;12504;52.870;8.798;2023-07-29T02:20:28;35.22;;;19.30;;
24383;SDS011;12504;52.870;8.798;2023-07-29T02:22:55;34.45;;;18.75;;
24383;SDS011;12504;52.870;8.798;2023-07-29T02:25:24;28.35;;;17.40;;
24383;SDS011;12504;52.870;8.798;2023-07-29T02:27:51;34.83;;;18.05;;
24383;SDS011;12504;52.870;8.798;2023-07-29T02:30:21;33.13;;;18.80;;
24383;SDS011;12504;52.870;8.798;2023-07-29T02:32:53;35.95;;;19.98;;
24383;SDS011;12504;52.870;8.798;2023-07-29T02:35:19;30.50;;;17.90;;
24383;SDS011;12504;52.870;8.798;2023-07-29T02:37:51;37.05;;;17.38;;
24383;SDS011;12504;52.870;8.798;2023-07-29T02:40:19;29.67;;;17.08;;
24383;SDS011;12504;52.870;8.798;2023-07-29T02:42:46;36.67;;;19.42;;
24383;SDS011;12504;52.870;8.798;2023-07-29T02:45:13;34.80;;;19.20;;
24383;SDS011;12504;52.870;8.798;2023-07-29T02:47:39;34.13;;;18.73;;
24383;SDS011;12504;52.870;8.798;2023-07-29T02:50:06;26.27;;;18.38;;
24383;SDS011;12504;52.870;8.798;2023-07-29T02:52:32;32.38;;;18.98;;
24383;SDS011;12504;52.870;8.798;2023-07-29T02:55:01;29.55;;;18.27;;
24383;SDS011;12504;52.870;8.798;2023-07-29T02:57:28;30.15;;;18.40;;
24383;SDS011;12504;52.870;8.798;2023-07-29T02:59:57;34.60;;;19.73;;
24383;SDS011;12504;52.870;8.798;2023-07-29T03:02:24;26.42;;;18.15;;
24383;SDS011;12504;52.870;8.798;2023-07-29T03:04:50;29.50;;;17.17;;
24383;SDS011;12504;52.870;8.798;2023-07-29T03:07:38;30.15;;;16.13;;
24383;SDS011;12504;52.870;8.798;2023-07-29T03:10:07;32.38;;;17.13;;
24383;SDS011;12504;52.870;8.798;2023-07-29T03:12:34;31.75;;;18.05;;
24383;SDS011;12504;52.870;8.798;2023-07-29T03:15:00;34.58;;;18.60;;
24383;SDS011;12504;52.870;8.798;2023-07-29T03:17:27;29.25;;;17.75;;
24383;SDS011;12504;52.870;8.798;2023-07-29T03:19:53;37.10;;;19.10;;
24383;SDS011;12504;52.870;8.798;2023-07-29T03:22:19;29.80;;;17.73;;
24383;SDS011;12504;52.870;8.798;2023-07-29T03:24:45;31.35;;;18.33;;
24383;SDS011;12504;52.870;8.798;2023-07-29T03:27:13;31.23;;;18.20;;
24383;SDS011;12504;52.870;8.798;2023-07-29T03:29:41;31.70;;;18.30;;
24383;SDS011;12504;52.870;8.798;2023-07-29T03:32:07;31.02;;;18.23;;
24383;SDS011;12504;52.870;8.798;2023-07-29T03:34:34;30.15;;;18.08;;
24383;SDS011;12504;52.870;8.798;2023-07-29T03:37:04;30.75;;;18.77;;
24383;SDS011;12504;52.870;8.798;2023-07-29T03:39:30;30.48;;;18.40;;
24383;SDS011;12504;52.870;8.798;2023-07-29T03:42:02;27.60;;;17.23;;
24383;SDS011;12504;52.870;8.798;2023-07-29T03:44:30;29.45;;;17.75;;
24383;SDS011;12504;52.870;8.798;2023-07-29T03:49:26;27.88;;;17.05;;
24383;SDS011;12504;52.870;8.798;2023-07-29T03:51:52;29.67;;;16.88;;
24383;SDS011;12504;52.870;8.798;2023-07-29T03:54:20;32.83;;;17.38;;
24383;SDS011;12504;52.870;8.798;2023-07-29T03:56:47;29.80;;;17.40;;
24383;SDS011;12504;52.870;8.798;2023-07-29T03:59:13;32.65;;;19.42;;
24383;SDS011;12504;52.870;8.798;2023-07-29T04:01:39;27.33;;;17.42;;
24383;SDS011;12504;52.870;8.798;2023-07-29T04:04:06;33.47;;;20.98;;
24383;SDS011;12504;52.870;8.798;2023-07-29T04:06:35;38.78;;;19.92;;
24383;SDS011;12504;52.870;8.798;2023-07-29T04:09:04;28.15;;;16.42;;
24383;SDS011;12504;52.870;8.798;2023-07-29T04:11:31;29.23;;;17.83;;
24383;SDS011;12504;52.870;8.798;2023-07-29T04:14:01;29.77;;;18.05;;
24383;SDS011;12504;52.870;8.798;2023-07-29T04:16:31;27.52;;;17.95;;
24383;SDS011;12504;52.870;8.798;2023-07-29T04:18:59;33.17;;;19.38;;
24383;SDS011;12504;52.870;8.798;2023-07-29T04:21:25;32.42;;;19.85;;
24383;SDS011;12504;52.870;8.798;2023-07-29T04:23:54;31.95;;;18.05;;
24383;SDS011;12504;52.870;8.798;2023-07-29T04:26:26;28.23;;;19.30;;
24383;SDS011;12504;52.870;8.798;2023-07-29T04:28:53;38.80;;;21.75;;
24383;SDS011;12504;52.870;8.798;2023-07-29T04:31:20;31.80;;;19.20;;
24383;SDS011;12504;52.870;8.798;2023-07-29T04:33:49;29.93;;;19.80;;
24383;SDS011;12504;52.870;8.798;2023-07-29T04:36:19;30.67;;;19.65;;
24383;SDS011;12504;52.870;8.798;2023-07-29T04:38:46;32.65;;;20.88;;
24383;SDS011;12504;52.870;8.798;2023-07-29T04:41:13;30.48;;;19.90;;
24383;SDS011;12504;52.870;8.798;2023-07-29T04:43:40;29.20;;;18.13;;
24383;SDS011;12504;52.870;8.798;2023-07-29T04:46:08;33.00;;;18.15;;
24383;SDS011;12504;52.870;8.798;2023-07-29T04:48:35;33.70;;;18.70;;
24383;SDS011;12504;52.870;8.798;2023-07-29T04:51:05;34.75;;;19.10;;
24383;SDS011;12504;52.870;8.798;2023-07-29T04:53:31;32.72;;;18.05;;
24383;SDS011;12504;52.870;8.798;2023-07-29T04:56:00;34.80;;;19.45;;
24383;SDS011;12504;52.870;8.798;2023-07-29T04:58:28;30.88;;;19.65;;
24383;SDS011;12504;52.870;8.798;2023-07-29T05:00:57;31.07;;;19.90;;
24383;SDS011;12504;52.870;8.798;2023-07-29T05:03:26;28.40;;;17.83;;
24383;SDS011;12504;52.870;8.798;2023-07-29T05:05:53;29.23;;;17.02;;
24383;SDS011;12504;52.870;8.798;2023-07-29T05:08:26;28.17;;;17.50;;
24383;SDS011;12504;52.870;8.798;2023-07-29T05:10:53;26.52;;;16.38;;
24383;SDS011;12504;52.870;8.798;2023-07-29T05:13:19;26.63;;;17.08;;
24383;SDS011;12504;52.870;8.798;2023-07-29T05:15:49;30.60;;;17.53;;
24383;SDS011;12504;52.870;8.798;2023-07-29T05:18:18;29.58;;;15.90;;
24383;SDS011;12504;52.870;8.798;2023-07-29T05:20:47;25.83;;;15.65;;
24383;SDS011;12504;52.870;8.798;2023-07-29T05:23:23;23.42;;;16.08;;
24383;SDS011;12504;52.870;8.798;2023-07-29T05:25:53;28.13;;;16.33;;
24383;SDS011;12504;52.870;8.798;2023-07-29T05:28:20;28.85;;;17.02;;
24383;SDS011;12504;52.870;8.798;2023-07-29T05:30:47;26.90;;;16.58;;
24383;SDS011;12504;52.870;8.798;2023-07-29T05:33:13;26.70;;;17.23;;
24383;SDS011;12504;52.870;8.798;2023-07-29T05:35:45;23.55;;;16.13;;
24383;SDS011;12504;52.870;8.798;2023-07-29T05:38:13;25.50;;;17.13;;
24383;SDS011;12504;52.870;8.798;2023-07-29T05:40:39;24.23;;;16.15;;
24383;SDS011;12504;52.870;8.798;2023-07-29T05:43:09;24.50;;;15.50;;
24383;SDS011;12504;52.870;8.798;2023-07-29T05:45:36;23.48;;;16.23;;
24383;SDS011;12504;52.870;8.798;2023-07-29T05:48:02;22.88;;;16.10;;
24383;SDS011;12504;52.870;8.798;2023-07-29T05:50:28;24.40;;;15.60;;
24383;SDS011;12504;52.870;8.798;2023-07-29T05:52:57;25.60;;;17.15;;
24383;SDS011;12504;52.870;8.798;2023-07-29T05:55:24;23.50;;;16.08;;
24383;SDS011;12504;52.870;8.798;2023-07-29T05:57:53;24.40;;;15.53;;
24383;SDS011;12504;52.870;8.798;2023-07-29T06:00:20;23.02;;;14.80;;
24383;SDS011;12504;52.870;8.798;2023-07-29T06:02:49;21.50;;;15.60;;
24383;SDS011;12504;52.870;8.798;2023-07-29T06:05:19;22.85;;;13.85;;
24383;SDS011;12504;52.870;8.798;2023-07-29T06:07:45;23.63;;;16.05;;
24383;SDS011;12504;52.870;8.798;2023-07-29T06:10:16;23.50;;;15.07;;
24383;SDS011;12504;52.870;8.798;2023-07-29T06:12:45;23.33;;;15.40;;
24383;SDS011;12504;52.870;8.798;2023-07-29T06:15:15;24.30;;;14.90;;
24383;SDS011;12504;52.870;8.798;2023-07-29T06:17:50;23.02;;;15.60;;
24383;SDS011;12504;52.870;8.798;2023-07-29T06:22:43;22.38;;;15.73;;
24383;SDS011;12504;52.870;8.798;2023-07-29T06:25:09;28.00;;;15.68;;
24383;SDS011;12504;52.870;8.798;2023-07-29T06:27:35;26.23;;;15.02;;
24383;SDS011;12504;52.870;8.798;2023-07-29T06:30:04;22.92;;;15.48;;
24383;SDS011;12504;52.870;8.798;2023-07-29T06:32:31;23.42;;;16.17;;
24383;SDS011;12504;52.870;8.798;2023-07-29T06:35:01;27.63;;;18.45;;
24383;SDS011;12504;52.870;8.798;2023-07-29T06:37:30;26.05;;;16.35;;
24383;SDS011;12504;52.870;8.798;2023-07-29T06:39:58;23.88;;;16.38;;
24383;SDS011;12504;52.870;8.798;2023-07-29T06:42:25;27.20;;;18.10;;
24383;SDS011;12504;52.870;8.798;2023-07-29T06:44:51;22.30;;;16.92;;
24383;SDS011;12504;52.870;8.798;2023-07-29T06:47:16;23.90;;;16.98;;
24383;SDS011;12504;52.870;8.798;2023-07-29T06:49:43;26.83;;;18.20;;
24383;SDS011;12504;52.870;8.798;2023-07-29T06:52:11;26.88;;;17.30;;
24383;SDS011;12504;52.870;8.798;2023-07-29T06:54:40;26.52;;;17.38;;
24383;SDS011;12504;52.870;8.798;2023-07-29T06:57:06;24.25;;;16.63;;
24383;SDS011;12504;52.870;8.798;2023-07-29T06:59:35;24.02;;;18.00;;
24383;SDS011;12504;52.870;8.798;2023-07-29T07:02:02;25.52;;;15.48;;
24383;SDS011;12504;52.870;8.798;2023-07-29T07:04:27;27.45;;;17.50;;
24383;SDS011;12504;52.870;8.798;2023-07-29T07:07:00;23.15;;;16.15;;
24383;SDS011;12504;52.870;8.798;2023-07-29T07:09:29;19.45;;;14.00;;
24383;SDS011;12504;52.870;8.798;2023-07-29T07:11:55;23.30;;;15.32;;
24383;SDS011;12504;52.870;8.798;2023-07-29T07:14:23;21.95;;;14.45;;
24383;SDS011;12504;52.870;8.798;2023-07-29T07:16:49;17.10;;;12.88;;
24383;SDS011;12504;52.870;8.798;2023-07-29T07:19:21;19.60;;;12.25;;
24383;SDS011;12504;52.870;8.798;2023-07-29T07:21:50;16.48;;;12.23;;
24383;SDS011;12504;52.870;8.798;2023-07-29T07:24:22;16.73;;;12.70;;
24383;SDS011;12504;52.870;8.798;2023-07-29T07:26:50;15.65;;;11.30;;
24383;SDS011;12504;52.870;8.798;2023-07-29T07:29:16;15.45;;;11.20;;
24383;SDS011;12504;52.870;8.798;2023-07-29T07:31:49;17.27;;;12.43;;
24383;SDS011;12504;52.870;8.798;2023-07-29T07:34:22;16.80;;;11.50;;
24383;SDS011;12504;52.870;8.798;2023-07-29T07:36:48;15.40;;;11.40;;
24383;SDS011;12504;52.870;8.798;2023-07-29T07:39:20;16.95;;;10.27;;
24383;SDS011;12504;52.870;8.798;2023-07-29T07:41:47;15.27;;;10.45;;
24383;SDS011;12504;52.870;8.798;2023-07-29T07:44:24;16.83;;;11.82;;
24383;SDS011;12504;52.870;8.798;2023-07-29T07:46:51;14.48;;;10.15;;
24383;SDS011;12504;52.870;8.798;2023-07-29T07:49:18;14.52;;;11.23;;
24383;SDS011;12504;52.870;8.798;2023-07-29T07:51:47;16.20;;;10.57;;
24383;SDS011;12504;52.870;8.798;2023-07-29T07:54:13;12.27;;;9.27;;
24383;SDS011;12504;52.870;8.798;2023-07-29T07:56:39;16.13;;;9.95;;
24383;SDS011;12504;52.870;8.798;2023-07-29T07:59:10;16.63;;;9.35;;
24383;SDS011;12504;52.870;8.798;2023-07-29T08:01:39;11.73;;;8.60;;
24383;SDS011;12504;52.870;8.798;2023-07-29T08:04:05;12.63;;;7.87;;
24383;SDS011;12504;52.870;8.798;2023-07-29T08:06:34;13.05;;;8.40;;
24383;SDS011;12504;52.870;8.798;2023-07-29T08:09:00;17.65;;;9.32;;
24383;SDS011;12504;52.870;8.798;2023-07-29T08:11:29;9.57;;;7.40;;
24383;SDS011;12504;52.870;8.798;2023-07-29T08:13:58;15.23;;;8.82;;
24383;SDS011;12504;52.870;8.798;2023-07-29T08:16:30;11.80;;;8.20;;
24383;SDS011;12504;52.870;8.798;2023-07-29T08:18:56;10.05;;;7.47;;
24383;SDS011;12504;52.870;8.798;2023-07-29T08:21:26;14.10;;;8.52;;
24383;SDS011;12504;52.870;8.798;2023-07-29T08:23:54;10.98;;;7.53;;
24383;SDS011;12504;52.870;8.798;2023-07-29T08:26:20;10.98;;;7.80;;
24383;SDS011;12504;52.870;8.798;2023-07-29T08:28:49;10.87;;;7.83;;
24383;SDS011;12504;52.870;8.798;2023-07-29T08:31:16;10.57;;;7.93;;
24383;SDS011;12504;52.870;8.798;2023-07-29T08:33:42;8.20;;;5.60;;
24383;SDS011;12504;52.870;8.798;2023-07-29T08:36:10;9.52;;;6.13;;
24383;SDS011;12504;52.870;8.798;2023-07-29T08:38:36;9.38;;;5.68;;
24383;SDS011;12504;52.870;8.798;2023-07-29T08:44:01;11.80;;;5.88;;
24383;SDS011;12504;52.870;8.798;2023-07-29T08:46:35;8.20;;;5.45;;
24383;SDS011;12504;52.870;8.798;2023-07-29T08:49:08;12.30;;;6.68;;
24383;SDS011;12504;52.870;8.798;2023-07-29T08:51:43;8.02;;;6.00;;
24383;SDS011;12504;52.870;8.798;2023-07-29T08:54:13;9.70;;;6.93;;
24383;SDS011;12504;52.870;8.798;2023-07-29T08:56:42;9.57;;;7.05;;
24383;SDS011;12504;52.870;8.798;2023-07-29T08:59:09;13.38;;;7.95;;
24383;SDS011;12504;52.870;8.798;2023-07-29T09:01:40;11.85;;;8.43;;
24383;SDS011;12504;52.870;8.798;2023-07-29T09:04:09;10.80;;;8.68;;
24383;SDS011;12504;52.870;8.798;2023-07-29T09:06:38;11.10;;;9.38;;
24383;SDS011;12504;52.870;8.798;2023-07-29T09:09:07;14.80;;;11.13;;
24383;SDS011;12504;52.870;8.798;2023-07-29T09:11:34;14.02;;;10.27;;
24383;SDS011;12504;52.870;8.798;2023-07-29T09:14:06;10.70;;;8.63;;
24383;SDS011;12504;52.870;8.798;2023-07-29T09:16:49;11.43;;;8.52;;
24383;SDS011;12504;52.870;8.798;2023-07-29T09:19:18;10.93;;;9.27;;
24383;SDS011;12504;52.870;8.798;2023-07-29T09:21:46;11.20;;;9.00;;
24383;SDS011;12504;52.870;8.798;2023-07-29T09:24:12;11.65;;;9.77;;
24383;SDS011;12504;52.870;8.798;2023-07-29T09:26:48;13.73;;;9.63;;
24383;SDS011;12504;52.870;8.798;2023-07-29T09:29:20;12.93;;;10.00;;
24383;SDS011;12504;52.870;8.798;2023-07-29T09:31:48;11.65;;;9.52;;
24383;SDS011;12504;52.870;8.798;2023-07-29T09:34:15;10.02;;;8.30;;
24383;SDS011;12504;52.870;8.798;2023-07-29T09:36:45;10.60;;;7.78;;
24383;SDS011;12504;52.870;8.798;2023-07-29T09:39:14;9.15;;;7.75;;
24383;SDS011;12504;52.870;8.798;2023-07-29T09:41:46;7.82;;;6.53;;
24383;SDS011;12504;52.870;8.798;2023-07-29T09:44:14;8.98;;;6.40;;
24383;SDS011;12504;52.870;8.798;2023-07-29T09:46:45;7.28;;;4.72;;
24383;SDS011;12504;52.870;8.798;2023-07-29T09:49:14;6.60;;;5.20;;
24383;SDS011;12504;52.870;8.798;2023-07-29T09:51:46;5.38;;;4.47;;
24383;SDS011;12504;52.870;8.798;2023-07-29T09:54:18;6.85;;;4.38;;
24383;SDS011;12504;52.870;8.798;2023-07-29T09:56:45;7.18;;;4.45;;
24383;SDS011;12504;52.870;8.798;2023-07-29T09:59:12;5.60;;;4.63;;
24383;SDS011;12504;52.870;8.798;2023-07-29T10:01:47;4.45;;;3.47;;
24383;SDS011;12504;52.870;8.798;2023-07-29T10:04:19;4.85;;;2.97;;
24383;SDS011;12504;52.870;8.798;2023-07-29T10:06:46;3.25;;;2.50;;
24383;SDS011;12504;52.870;8.798;2023-07-29T10:09:15;5.63;;;4.50;;
24383;SDS011;12504;52.870;8.798;2023-07-29T10:11:42;9.75;;;3.85;;
24383;SDS011;12504;52.870;8.798;2023-07-29T10:14:08;4.75;;;3.20;;
24383;SDS011;12504;52.870;8.798;2023-07-29T10:16:36;5.90;;;2.90;;
24383;SDS011;12504;52.870;8.798;2023-07-29T10:19:07;3.08;;;1.90;;
24383;SDS011;12504;52.870;8.798;2023-07-29T10:21:38;5.20;;;2.22;;
24383;SDS011;12504;52.870;8.798;2023-07-29T10:24:06;5.53;;;2.83;;
24383;SDS011;12504;52.870;8.798;2023-07-29T10:26:44;3.15;;;2.67;;
24383;SDS011;12504;52.870;8.798;2023-07-29T10:29:19;3.78;;;2.28;;
24383;SDS011;12504;52.870;8.798;2023-07-29T10:31:51;5.00;;;3.10;;
24383;SDS011;12504;52.870;8.798;2023-07-29T10:34:21;3.00;;;2.50;;
24383;SDS011;12504;52.870;8.798;2023-07-29T10:36:50;5.80;;;3.22;;
24383;SDS011;12504;52.870;8.798;2023-07-29T10:39:18;3.20;;;1.92;;
24383;SDS011;12504;52.870;8.798;2023-07-29T10:47:13;2.85;;;2.10;;
24383;SDS011;12504;52.870;8.798;2023-07-29T10:49:57;2.30;;;2.05;;
24383;SDS011;12504;52.870;8.798;2023-07-29T10:52:30;4.32;;;2.22;;
24383;SDS011;12504;52.870;8.798;2023-07-29T10:55:05;4.50;;;1.80;;
24383;SDS011;12504;52.870;8.798;2023-07-29T10:57:52;5.32;;;2.30;;
24383;SDS011;12504;52.870;8.798;2023-07-29T11:00:32;2.15;;;1.77;;
24383;SDS011;12504;52.870;8.798;2023-07-29T11:03:13;2.60;;;1.80;;
24383;SDS011;12504;52.870;8.798;2023-07-29T11:05:49;3.70;;;2.13;;
24383;SDS011;12504;52.870;8.798;2023-07-29T11:08:18;2.95;;;1.63;;
24383;SDS011;12504;52.870;8.798;2023-07-29T11:11:00;2.30;;;1.67;;
24383;SDS011;12504;52.870;8.798;2023-07-29T11:13:31;1.77;;;1.38;;
24383;SDS011;12504;52.870;8.798;2023-07-29T11:16:01;1.65;;;1.52;;
24383;SDS011;12504;52.870;8.798;2023-07-29T11:18:28;3.92;;;1.95;;
24383;SDS011;12504;52.870;8.798;2023-07-29T11:20:59;2.08;;;1.77;;
24383;SDS011;12504;52.870;8.798;2023-07-29T11:23:36;6.57;;;1.60;;
24383;SDS011;12504;52.870;8.798;2023-07-29T11:26:03;1.52;;;1.42;;
24383;SDS011;12504;52.870;8.798;2023-07-29T11:28:38;1.67;;;1.45;;
24383;SDS011;12504;52.870;8.798;2023-07-29T11:31:08;3.78;;;2.15;;
24383;SDS011;12504;52.870;8.798;2023-07-29T11:33:34;3.35;;;1.80;;
24383;SDS011;12504;52.870;8.798;2023-07-29T11:35:59;1.52;;;1.35;;
24383;SDS011;12504;52.870;8.798;2023-07-29T11:38:26;3.78;;;1.80;;
24383;SDS011;12504;52.870;8.798;2023-07-29T11:40:56;2.50;;;1.55;;
24383;SDS011;12504;52.870;8.798;2023-07-29T11:43:29;2.20;;;1.55;;
24383;SDS011;12504;52.870;8.798;2023-07-29T11:46:01;4.18;;;2.00;;
24383;SDS011;12504;52.870;8.798;2023-07-29T11:48:32;4.25;;;1.95;;
24383;SDS011;12504;52.870;8.798;2023-07-29T11:51:00;2.72;;;1.30;;
24383;SDS011;12504;52.870;8.798;2023-07-29T11:53:28;3.05;;;1.83;;
24383;SDS011;12504;52.870;8.798;2023-07-29T11:55:56;2.95;;;1.83;;
24383;SDS011;12504;52.870;8.798;2023-07-29T12:00:58;4.07;;;1.58;;
24383;SDS011;12504;52.870;8.798;2023-07-29T12:03:27;2.13;;;1.67;;
24383;SDS011;12504;52.870;8.798;2023-07-29T12:05:56;1.95;;;1.35;;
24383;SDS011;12504;52.870;8.798;2023-07-29T12:08:25;4.43;;;1.50;;
24383;SDS011;12504;52.870;8.798;2023-07-29T12:13:23;4.03;;;1.70;;
24383;SDS011;12504;52.870;8.798;2023-07-29T12:15:52;4.55;;;1.70;;
24383;SDS011;12504;52.870;8.798;2023-07-29T12:18:30;2.35;;;1.35;;
24383;SDS011;12504;52.870;8.798;2023-07-29T12:21:03;3.63;;;1.33;;
24383;SDS011;12504;52.870;8.798;2023-07-29T12:23:32;2.33;;;1.50;;
24383;SDS011;12504;52.870;8.798;2023-07-29T12:25:59;3.53;;;1.23;;
24383;SDS011;12504;52.870;8.798;2023-07-29T12:28:27;3.50;;;1.45;;
24383;SDS011;12504;52.870;8.798;2023-07-29T12:30:55;4.60;;;1.60;;
24383;SDS011;12504;52.870;8.798;2023-07-29T12:33:34;1.80;;;1.30;;
24383;SDS011;12504;52.870;8.798;2023-07-29T12:36:04;2.45;;;0.90;;
24383;SDS011;12504;52.870;8.798;2023-07-29T12:38:31;2.53;;;1.40;;
24383;SDS011;12504;52.870;8.798;2023-07-29T12:40:58;5.63;;;1.48;;
24383;SDS011;12504;52.870;8.798;2023-07-29T12:43:24;1.75;;;1.00;;
24383;SDS011;12504;52.870;8.798;2023-07-29T12:48:23;1.95;;;1.35;;
24383;SDS011;12504;52.870;8.798;2023-07-29T12:50:51;3.20;;;1.23;;
24383;SDS011;12504;52.870;8.798;2023-07-29T12:53:20;3.53;;;1.38;;
24383;SDS011;12504;52.870;8.798;2023-07-29T12:55:49;1.87;;;1.07;;
24383;SDS011;12504;52.870;8.798;2023-07-29T12:58:15;4.13;;;1.35;;
24383;SDS011;12504;52.870;8.798;2023-07-29T13:00:46;1.50;;;0.98;;
24383;SDS011;12504;52.870;8.798;2023-07-29T13:03:15;1.90;;;1.17;;
24383;SDS011;12504;52.870;8.798;2023-07-29T13:05:46;2.08;;;1.33;;
24383;SDS011;12504;52.870;8.798;2023-07-29T13:08:15;2.83;;;1.60;;
24383;SDS011;12504;52.870;8.798;2023-07-29T13:10:44;2.97;;;1.17;;
24383;SDS011;12504;52.870;8.798;2023-07-29T13:13:12;1.75;;;1.25;;
24383;SDS011;12504;52.870;8.798;2023-07-29T13:18:06;3.40;;;1.50;;
24383;SDS011;12504;52.870;8.798;2023-07-29T13:20:35;1.73;;;1.27;;
24383;SDS011;12504;52.870;8.798;2023-07-29T13:23:05;2.15;;;1.58;;
24383;SDS011;12504;52.870;8.798;2023-07-29T13:25:37;2.83;;;1.50;;
24383;SDS011;12504;52.870;8.798;2023-07-29T13:28:06;4.32;;;1.33;;
24383;SDS011;12504;52.870;8.798;2023-07-29T13:30:33;1.75;;;1.27;;
24383;SDS011;12504;52.870;8.798;2023-07-29T13:32:59;2.95;;;1.70;;
24383;SDS011;12504;52.870;8.798;2023-07-29T13:35:25;2.00;;;1.45;;
24383;SDS011;12504;52.870;8.798;2023-07-29T13:37:54;5.57;;;1.30;;
24383;SDS011;12504;52.870;8.798;2023-07-29T13:40:22;3.38;;;1.30;;
24383;SDS011;12504;52.870;8.798;2023-07-29T13:42:48;2.63;;;1.20;;
24383;SDS011;12504;52.870;8.798;2023-07-29T13:45:17;1.92;;;1.30;;
24383;SDS011;12504;52.870;8.798;2023-07-29T13:47:46;3.80;;;1.67;;
24383;SDS011;12504;52.870;8.798;2023-07-29T13:50:15;1.45;;;1.23;;
24383;SDS011;12504;52.870;8.798;2023-07-29T13:52:45;2.58;;;1.30;;
24383;SDS011;12504;52.870;8.798;2023-07-29T13:55:15;2.05;;;1.40;;
24383;SDS011;12504;52.870;8.798;2023-07-29T13:57:44;1.88;;;1.45;;
24383;SDS011;12504;52.870;8.798;2023-07-29T14:00:13;2.85;;;1.92;;
24383;SDS011;12504;52.870;8.798;2023-07-29T14:02:43;1.70;;;1.60;;
24383;SDS011;12504;52.870;8.798;2023-07-29T14:05:14;3.00;;;1.40;;
24383;SDS011;12504;52.870;8.798;2023-07-29T14:07:41;3.28;;;1.60;;
24383;SDS011;12504;52.870;8.798;2023-07-29T14:10:07;1.73;;;1.30;;
24383;SDS011;12504;52.870;8.798;2023-07-29T14:12:34;2.83;;;2.03;;
24383;SDS011;12504;52.870;8.798;2023-07-29T14:15:04;3.25;;;1.52;;
24383;SDS011;12504;52.870;8.798;2023-07-29T14:17:33;2.00;;;1.60;;
24383;SDS011;12504;52.870;8.798;2023-07-29T14:20:02;2.65;;;2.20;;
24383;SDS011;12504;52.870;8.798;2023-07-29T14:22:33;2.80;;;1.80;;
24383;SDS011;12504;52.870;8.798;2023-07-29T14:25:02;2.95;;;1.98;;
24383;SDS011;12504;52.870;8.798;2023-07-29T14:27:28;1.92;;;1.67;;
24383;SDS011;12504;52.870;8.798;2023-07-29T14:29:54;2.95;;;2.20;;
24383;SDS011;12504;52.870;8.798;2023-07-29T14:32:23;5.33;;;2.40;;
24383;SDS011;12504;52.870;8.798;2023-07-29T14:34:49;1.90;;;1.65;;
24383;SDS011;12504;52.870;8.798;2023-07-29T14:37:19;4.05;;;2.33;;
24383;SDS011;12504;52.870;8.798;2023-07-29T14:39:45;2.13;;;1.80;;
24383;SDS011;12504;52.870;8.798;2023-07-29T14:42:11;2.28;;;2.08;;
24383;SDS011;12504;52.870;8.798;2023-07-29T14:44:38;2.53;;;2.13;;
24383;SDS011;12504;52.870;8.798;2023-07-29T14:47:07;4.97;;;2.33;;
24383;SDS011;12504;52.870;8.798;2023-07-29T14:49:39;4.20;;;2.42;;
24383;SDS011;12504;52.870;8.798;2023-07-29T14:52:05;1.73;;;1.55;;
24383;SDS011;12504;52.870;8.798;2023-07-29T14:54:32;2.00;;;1.80;;
24383;SDS011;12504;52.870;8.798;2023-07-29T14:57:01;4.97;;;2.50;;
24383;SDS011;12504;52.870;8.798;2023-07-29T14:59:28;2.65;;;2.30;;
24383;SDS011;12504;52.870;8.798;2023-07-29T15:01:54;2.75;;;2.30;;
24383;SDS011;12504;52.870;8.798;2023-07-29T15:04:23;2.45;;;2.10;;
24383;SDS011;12504;52.870;8.798;2023-07-29T15:06:49;2.88;;;2.47;;
24383;SDS011;12504;52.870;8.798;2023-07-29T15:09:15;5.60;;;2.40;;
24383;SDS011;12504;52.870;8.798;2023-07-29T15:11:41;3.50;;;2.40;;